Time;durP1;ratioP1;P1;durP2;ratioP2;P2;SDS_P1;SDS_P2;PMS_P1;PMS_P2;Temp;Humidity;BMP_temperature;BMP_pressure;BME280_temperature;BME280_humidity;BME280_pressure;Samples;Min_cycle;Max_cycle;Signal;HPM_P1;HPM_P2
2023/07/10 00:00:19;;;;;;;9.23;4.78;;;24.40;60.40;;;;;;5075816;28;20547;-67
2023/07/10 00:02:45;;;;;;;10.75;4.95;;;24.40;60.30;;;;;;5076018;28;20525;-67
2023/07/10 00:05:16;;;;;;;6.90;5.47;;;24.50;60.40;;;;;;5075590;28;20115;-68
2023/07/10 00:07:42;;;;;;;8.15;5.28;;;24.40;60.30;;;;;;5076068;28;20036;-67
2023/07/10 00:10:13;;;;;;;6.03;5.28;;;24.40;60.40;;;;;;5075001;28;20032;-67
2023/07/10 00:12:41;;;;;;;6.75;5.25;;;24.30;60.20;;;;;;5075998;28;20027;-67
2023/07/10 00:15:26;;;;;;;5.60;4.88;;;24.30;60.30;;;;;;5075352;28;20017;-67
2023/07/10 00:17:52;;;;;;;9.95;5.55;;;24.30;60.30;;;;;;5075707;28;20029;-67
2023/07/10 00:20:21;;;;;;;6.72;5.43;;;24.30;60.20;;;;;;5075791;28;20055;-68
2023/07/10 00:22:47;;;;;;;7.82;5.47;;;24.20;59.90;;;;;;5075390;28;20551;-68
2023/07/10 00:25:16;;;;;;;6.63;4.95;;;24.20;59.90;;;;;;5075291;28;20055;-68
2023/07/10 00:27:47;;;;;;;16.02;5.30;;;24.20;60.00;;;;;;5075634;28;20484;-68
2023/07/10 00:30:15;;;;;;;6.57;5.45;;;24.20;60.00;;;;;;5075162;28;20048;-68
2023/07/10 00:32:42;;;;;;;5.97;4.78;;;24.20;60.40;;;;;;5075475;28;20028;-67
2023/07/10 00:35:08;;;;;;;7.93;5.50;;;24.20;60.10;;;;;;5074977;28;20444;-68
2023/07/10 00:37:34;;;;;;;6.03;4.70;;;24.20;60.00;;;;;;5075524;28;20056;-68
2023/07/10 00:40:00;;;;;;;8.75;4.72;;;24.20;60.10;;;;;;5075213;28;20033;-68
2023/07/10 00:42:26;;;;;;;6.13;5.50;;;24.10;60.00;;;;;;5075224;28;20107;-68
2023/07/10 00:44:57;;;;;;;8.13;4.85;;;24.00;60.00;;;;;;5074968;28;20025;-68
2023/07/10 00:47:27;;;;;;;5.72;4.53;;;23.90;60.10;;;;;;5074838;28;20049;-68
2023/07/10 00:50:19;;;;;;;5.68;5.05;;;23.90;60.30;;;;;;5075068;28;20162;-68
2023/07/10 00:52:47;;;;;;;6.97;5.60;;;23.90;60.00;;;;;;5074849;28;20489;-68
2023/07/10 00:55:27;;;;;;;8.82;5.28;;;24.00;59.80;;;;;;5074309;28;20461;-68
2023/07/10 00:58:12;;;;;;;6.57;4.70;;;24.00;59.30;;;;;;5075194;28;20126;-68
2023/07/10 01:00:38;;;;;;;6.25;5.03;;;24.00;58.90;;;;;;5073802;28;20484;-68
2023/07/10 01:03:03;;;;;;;7.60;5.03;;;24.00;58.90;;;;;;5074179;28;20033;-68
2023/07/10 01:05:31;;;;;;;7.90;4.72;;;24.00;58.80;;;;;;5073814;28;20025;-68
2023/07/10 01:07:59;;;;;;;6.80;4.90;;;24.00;58.80;;;;;;5074435;28;20483;-72
2023/07/10 01:10:25;;;;;;;5.97;4.57;;;24.00;58.90;;;;;;5075114;28;20032;-68
2023/07/10 01:12:51;;;;;;;8.63;5.30;;;24.00;58.70;;;;;;5074756;28;20058;-67
2023/07/10 01:15:17;;;;;;;5.70;5.10;;;23.90;58.40;;;;;;5074238;28;20448;-68
2023/07/10 01:17:43;;;;;;;6.30;4.90;;;23.90;58.50;;;;;;5074670;28;20029;-68
2023/07/10 01:20:39;;;;;;;7.95;4.88;;;23.90;58.70;;;;;;5074254;28;20067;-68
2023/07/10 01:23:05;;;;;;;7.00;5.00;;;23.80;58.80;;;;;;5074265;28;20025;-68
2023/07/10 01:25:50;;;;;;;8.40;4.95;;;23.80;58.50;;;;;;5074455;28;20431;-68
2023/07/10 01:28:18;;;;;;;8.07;5.47;;;23.80;58.70;;;;;;5073922;28;20036;-69
2023/07/10 01:30:45;;;;;;;10.80;5.18;;;23.70;59.00;;;;;;5073233;28;20040;-67
2023/07/10 01:33:19;;;;;;;7.15;5.03;;;23.70;59.10;;;;;;5073686;28;20474;-68
2023/07/10 01:35:49;;;;;;;11.63;5.00;;;23.60;59.20;;;;;;5074014;28;20530;-68
2023/07/10 01:38:15;;;;;;;7.70;5.10;;;23.60;59.10;;;;;;5073803;28;20035;-68
2023/07/10 01:40:45;;;;;;;7.13;5.05;;;23.60;59.00;;;;;;5074176;28;20031;-67
2023/07/10 01:43:11;;;;;;;7.57;5.25;;;23.50;58.90;;;;;;5073844;28;20051;-67
2023/07/10 01:45:46;;;;;;;6.10;5.07;;;23.60;59.00;;;;;;5074145;28;20461;-67
2023/07/10 01:48:13;;;;;;;8.68;4.78;;;23.50;58.90;;;;;;5073772;28;20091;-67
2023/07/10 01:50:40;;;;;;;9.30;5.22;;;23.50;58.70;;;;;;5073667;28;20381;-67
2023/07/10 01:53:08;;;;;;;8.68;5.43;;;23.60;58.70;;;;;;5073562;28;20435;-67
2023/07/10 01:55:43;;;;;;;7.55;5.22;;;23.60;58.70;;;;;;5073824;28;20098;-67
2023/07/10 01:58:10;;;;;;;8.50;5.10;;;23.60;58.90;;;;;;5073124;28;20457;-68
2023/07/10 02:00:36;;;;;;;5.57;4.95;;;23.60;58.70;;;;;;5073707;28;20036;-67
2023/07/10 02:03:01;;;;;;;8.68;4.65;;;23.60;58.60;;;;;;5073379;28;20037;-68
2023/07/10 02:05:27;;;;;;;6.00;4.95;;;23.60;58.30;;;;;;5073198;28;20025;-67
2023/07/10 02:07:53;;;;;;;10.00;5.40;;;23.60;58.50;;;;;;5073697;28;20102;-67
2023/07/10 02:10:18;;;;;;;7.35;5.28;;;23.60;58.30;;;;;;5073156;28;20036;-68
2023/07/10 02:12:44;;;;;;;6.15;4.50;;;23.60;58.20;;;;;;5073458;28;20060;-67
2023/07/10 02:15:10;;;;;;;5.80;4.78;;;23.60;58.30;;;;;;5073343;28;20376;-68
2023/07/10 02:17:35;;;;;;;5.93;4.75;;;23.60;58.20;;;;;;5072989;28;20074;-67
2023/07/10 02:20:01;;;;;;;5.72;4.65;;;23.60;58.30;;;;;;5073381;28;20032;-67
2023/07/10 02:22:27;;;;;;;6.57;4.93;;;23.60;58.40;;;;;;5072973;28;20107;-68
2023/07/10 02:24:53;;;;;;;9.23;4.75;;;23.60;58.20;;;;;;5073439;28;20085;-68
2023/07/10 02:27:18;;;;;;;7.80;5.07;;;23.60;58.30;;;;;;5072628;28;20033;-69
2023/07/10 02:29:44;;;;;;;8.70;4.85;;;23.50;58.40;;;;;;5073328;28;20032;-68
2023/07/10 02:32:10;;;;;;;6.57;4.97;;;23.60;58.40;;;;;;5072835;28;20124;-69
2023/07/10 02:34:35;;;;;;;10.10;5.13;;;23.60;58.60;;;;;;5073162;28;20059;-68
2023/07/10 02:37:01;;;;;;;8.60;4.70;;;23.60;58.90;;;;;;5073081;28;20363;-68
2023/07/10 02:39:27;;;;;;;5.65;4.97;;;23.50;58.40;;;;;;5072360;28;20035;-68
2023/07/10 02:41:52;;;;;;;9.15;4.90;;;23.50;58.10;;;;;;5073051;28;20108;-68
2023/07/10 02:44:18;;;;;;;6.85;5.10;;;23.50;58.20;;;;;;5071359;28;20493;-68
2023/07/10 02:46:43;;;;;;;5.78;4.80;;;23.50;58.10;;;;;;5072737;28;20371;-68
2023/07/10 02:49:09;;;;;;;5.93;4.43;;;23.50;58.00;;;;;;5072215;28;20081;-68
2023/07/10 02:51:35;;;;;;;8.38;5.20;;;23.60;58.00;;;;;;5072552;28;20032;-69
2023/07/10 02:54:10;;;;;;;6.25;5.18;;;23.60;57.90;;;;;;5072910;28;20033;-68
2023/07/10 02:56:35;;;;;;;7.47;4.78;;;23.60;57.80;;;;;;5071697;28;20377;-68
2023/07/10 02:59:01;;;;;;;7.40;5.28;;;23.60;57.60;;;;;;5072791;28;20025;-69
2023/07/10 03:01:26;;;;;;;6.88;5.10;;;23.60;57.10;;;;;;5071990;28;20028;-69
2023/07/10 03:03:52;;;;;;;7.95;5.20;;;23.60;56.80;;;;;;5072694;28;20024;-69
2023/07/10 03:06:19;;;;;;;8.18;5.05;;;23.60;56.60;;;;;;5072157;28;20458;-69
2023/07/10 03:08:45;;;;;;;6.57;5.00;;;23.60;57.20;;;;;;5072681;28;20056;-69
2023/07/10 03:11:13;;;;;;;11.60;5.60;;;23.60;56.70;;;;;;5074739;28;20393;-69
2023/07/10 03:13:38;;;;;;;8.85;5.07;;;23.60;57.00;;;;;;5075140;28;20028;-68
2023/07/10 03:16:10;;;;;;;6.95;5.13;;;23.60;56.90;;;;;;5074527;28;20036;-67
2023/07/10 03:18:36;;;;;;;8.63;5.07;;;23.60;56.40;;;;;;5072767;28;20021;-67
2023/07/10 03:21:02;;;;;;;6.95;4.88;;;23.60;56.50;;;;;;5072757;28;20028;-67
2023/07/10 03:23:27;;;;;;;6.55;4.65;;;23.60;56.60;;;;;;5071999;28;20043;-68
2023/07/10 03:25:53;;;;;;;5.72;4.35;;;23.50;56.50;;;;;;5072560;28;20085;-68
2023/07/10 03:28:19;;;;;;;9.75;5.20;;;23.50;56.00;;;;;;5071968;28;20033;-68
2023/07/10 03:30:45;;;;;;;6.60;4.57;;;23.50;55.90;;;;;;5075983;28;20125;-68
2023/07/10 03:33:15;;;;;;;11.50;4.95;;;23.50;55.90;;;;;;5075486;28;20067;-69
2023/07/10 03:35:42;;;;;;;8.77;4.70;;;23.50;55.80;;;;;;5076751;28;20468;-68
2023/07/10 03:38:09;;;;;;;6.30;5.20;;;23.50;55.90;;;;;;5076190;28;20078;-72
2023/07/10 03:40:35;;;;;;;9.07;5.00;;;23.60;56.00;;;;;;5076634;28;20176;-67
2023/07/10 03:43:00;;;;;;;6.18;4.82;;;23.60;56.10;;;;;;5076532;28;20111;-69
2023/07/10 03:45:26;;;;;;;9.10;5.28;;;23.60;56.10;;;;;;5076107;28;20124;-67
2023/07/10 03:47:52;;;;;;;7.53;5.25;;;23.70;56.30;;;;;;5076674;28;20056;-68
2023/07/10 03:50:18;;;;;;;6.30;4.80;;;23.70;56.10;;;;;;5074546;28;20035;-68
2023/07/10 03:52:43;;;;;;;10.02;5.10;;;23.70;56.10;;;;;;5076199;28;20035;-68
2023/07/10 03:55:09;;;;;;;8.98;4.88;;;23.80;56.10;;;;;;5075097;28;20081;-74
2023/07/10 03:57:35;;;;;;;8.35;4.57;;;23.80;56.10;;;;;;5076388;28;20465;-68
2023/07/10 04:00:00;;;;;;;7.50;5.05;;;23.90;56.10;;;;;;5076058;28;20089;-68
2023/07/10 04:02:26;;;;;;;6.35;4.75;;;23.90;55.90;;;;;;5075618;28;20025;-67
2023/07/10 04:04:51;;;;;;;8.35;4.68;;;23.90;55.20;;;;;;5076233;28;20457;-68
2023/07/10 04:07:18;;;;;;;5.88;4.55;;;23.90;55.40;;;;;;5075716;28;20032;-67
2023/07/10 04:09:43;;;;;;;5.63;5.00;;;23.90;55.30;;;;;;5076261;28;20158;-68
2023/07/10 04:12:09;;;;;;;6.35;4.75;;;24.00;55.20;;;;;;5076386;28;20088;-68
2023/07/10 04:14:37;;;;;;;13.25;5.45;;;24.00;55.20;;;;;;5076096;28;20033;-70
2023/07/10 04:17:04;;;;;;;7.72;5.10;;;24.20;55.40;;;;;;5075982;28;20393;-69
2023/07/10 04:19:29;;;;;;;6.60;4.93;;;24.30;55.10;;;;;;5075680;28;20372;-69
2023/07/10 04:21:55;;;;;;;8.57;5.20;;;24.40;54.80;;;;;;5074483;28;20028;-67
2023/07/10 04:24:21;;;;;;;6.05;4.68;;;24.50;54.60;;;;;;5075227;28;20167;-68
2023/07/10 04:26:46;;;;;;;7.35;5.53;;;24.60;54.50;;;;;;5075412;28;20107;-67
2023/07/10 04:29:13;;;;;;;12.32;4.90;;;24.70;54.50;;;;;;5074909;28;20063;-69
2023/07/10 04:31:38;;;;;;;6.25;4.93;;;24.80;54.10;;;;;;5075352;28;20024;-68
2023/07/10 04:34:04;;;;;;;8.95;5.53;;;24.90;54.10;;;;;;5075245;28;20477;-68
2023/07/10 04:36:30;;;;;;;7.95;5.10;;;25.10;54.20;;;;;;5074915;28;20103;-68
2023/07/10 04:38:55;;;;;;;11.02;5.00;;;25.10;54.00;;;;;;5075368;28;20457;-68
2023/07/10 04:41:23;;;;;;;6.45;4.60;;;25.10;53.50;;;;;;5075434;28;20049;-68
2023/07/10 04:43:49;;;;;;;8.20;5.53;;;25.30;53.50;;;;;;5075505;28;20104;-68
2023/07/10 04:46:16;;;;;;;7.50;5.35;;;25.30;53.40;;;;;;5074588;28;20124;-69
2023/07/10 04:48:46;;;;;;;12.13;5.70;;;25.50;53.90;;;;;;5076237;28;20085;-69
2023/07/10 04:51:13;;;;;;;7.40;5.03;;;25.60;54.30;;;;;;5075107;28;20032;-69
2023/07/10 04:53:38;;;;;;;8.80;5.32;;;25.70;53.80;;;;;;5075291;28;20029;-68
2023/07/10 04:56:07;;;;;;;7.60;4.95;;;25.80;53.80;;;;;;5075006;28;20021;-67
2023/07/10 04:58:51;;;;;;;7.28;5.15;;;25.90;53.40;;;;;;5075433;28;20024;-69
2023/07/10 05:01:18;;;;;;;11.05;5.53;;;26.10;53.30;;;;;;5074827;28;20072;-68
2023/07/10 05:03:44;;;;;;;9.90;5.28;;;26.30;52.80;;;;;;5074858;28;20028;-68
2023/07/10 05:06:10;;;;;;;9.75;5.28;;;26.50;52.70;;;;;;5074784;28;20036;-68
2023/07/10 05:08:35;;;;;;;10.95;5.40;;;26.60;52.40;;;;;;5074773;28;20028;-69
2023/07/10 05:11:01;;;;;;;7.82;5.40;;;26.90;52.00;;;;;;5074961;28;20111;-68
2023/07/10 05:13:28;;;;;;;11.35;5.50;;;27.10;51.60;;;;;;5074384;28;20032;-67
2023/07/10 05:15:57;;;;;;;17.60;6.60;;;27.40;51.80;;;;;;5074720;28;20103;-68
2023/07/10 05:18:23;;;;;;;9.00;6.72;;;27.60;53.00;;;;;;5074236;28;20035;-68
2023/07/10 05:20:49;;;;;;;11.82;6.28;;;27.80;52.90;;;;;;5074586;28;20111;-68
2023/07/10 05:23:16;;;;;;;14.93;6.60;;;28.20;52.50;;;;;;5074689;28;20488;-69
2023/07/10 05:25:53;;;;;;;11.05;6.82;;;28.40;52.00;;;;;;5074446;28;20028;-68
2023/07/10 05:28:19;;;;;;;13.18;7.18;;;28.30;51.90;;;;;;5072873;28;20021;-68
2023/07/10 05:30:45;;;;;;;13.40;6.03;;;28.20;52.00;;;;;;5074942;28;20453;-69
2023/07/10 05:33:11;;;;;;;12.57;6.72;;;28.40;52.00;;;;;;5074559;28;20124;-68
2023/07/10 05:35:36;;;;;;;12.25;6.75;;;28.40;51.80;;;;;;5073489;28;20159;-68
2023/07/10 05:38:02;;;;;;;8.18;5.72;;;28.50;51.90;;;;;;5073738;28;20496;-68
2023/07/10 05:40:27;;;;;;;10.77;6.07;;;28.70;51.70;;;;;;5073769;28;20058;-68
2023/07/10 05:42:53;;;;;;;11.73;6.70;;;29.00;51.10;;;;;;5073722;28;20036;-68
2023/07/10 05:45:19;;;;;;;13.73;6.97;;;29.40;50.70;;;;;;5073679;28;20031;-69
2023/07/10 05:47:44;;;;;;;10.75;6.22;;;29.50;50.30;;;;;;5072235;28;20070;-68
2023/07/10 05:50:10;;;;;;;9.90;6.57;;;29.60;49.90;;;;;;5073814;28;20105;-68
2023/07/10 05:52:35;;;;;;;12.25;6.30;;;29.60;49.40;;;;;;5072818;28;20081;-68
2023/07/10 05:55:02;;;;;;;11.48;6.47;;;29.90;49.80;;;;;;5073483;28;20036;-68
2023/07/10 05:57:28;;;;;;;12.35;6.38;;;30.10;48.60;;;;;;5073360;28;20025;-68
2023/07/10 05:59:53;;;;;;;9.00;6.25;;;30.00;48.80;;;;;;5073612;28;20192;-68
2023/07/10 06:02:19;;;;;;;10.55;6.65;;;30.00;49.20;;;;;;5073108;28;20099;-68
2023/07/10 06:04:45;;;;;;;10.35;6.13;;;30.00;49.10;;;;;;5073434;28;20373;-68
2023/07/10 06:07:10;;;;;;;8.50;6.05;;;30.70;48.40;;;;;;5073556;28;20360;-68
2023/07/10 06:09:36;;;;;;;9.07;5.25;;;31.40;46.80;;;;;;5072716;28;20028;-68
2023/07/10 06:12:01;;;;;;;7.47;5.43;;;32.00;46.00;;;;;;5073400;28;20110;-68
2023/07/10 06:14:27;;;;;;;7.47;5.35;;;32.70;44.80;;;;;;5073107;28;20107;-69
2023/07/10 06:16:53;;;;;;;14.52;5.50;;;33.40;43.80;;;;;;5073279;28;20075;-68
2023/07/10 06:19:20;;;;;;;7.93;5.85;;;34.20;42.90;;;;;;5073237;28;20029;-69
2023/07/10 06:21:46;;;;;;;9.45;6.03;;;35.00;41.40;;;;;;5073281;28;20488;-68
2023/07/10 06:24:12;;;;;;;7.82;5.22;;;35.70;40.80;;;;;;5072958;28;20043;-68
2023/07/10 06:26:37;;;;;;;6.50;5.43;;;36.30;39.20;;;;;;5072839;28;20036;-68
2023/07/10 06:29:03;;;;;;;12.73;6.32;;;36.80;38.70;;;;;;5072711;28;20028;-68
2023/07/10 06:31:28;;;;;;;8.40;4.85;;;37.30;38.10;;;;;;5072578;28;20028;-69
2023/07/10 06:33:54;;;;;;;8.38;4.82;;;37.70;37.80;;;;;;5072935;28;20024;-69
2023/07/10 06:36:20;;;;;;;11.13;4.78;;;38.20;36.40;;;;;;5073179;28;20028;-68
2023/07/10 06:38:45;;;;;;;8.23;5.32;;;38.50;36.30;;;;;;5072735;28;20032;-69
2023/07/10 06:41:12;;;;;;;6.95;4.93;;;38.70;36.10;;;;;;5073250;28;20082;-69
2023/07/10 06:43:38;;;;;;;7.70;5.60;;;38.80;35.50;;;;;;5072427;28;20489;-69
2023/07/10 06:46:04;;;;;;;10.40;5.20;;;39.50;35.90;;;;;;5072610;28;20036;-69
2023/07/10 06:48:29;;;;;;;9.02;5.07;;;39.20;34.80;;;;;;5072514;28;20116;-68
2023/07/10 06:50:56;;;;;;;8.27;5.07;;;39.40;34.90;;;;;;5072721;28;20063;-67
2023/07/10 06:53:23;;;;;;;11.18;5.30;;;39.80;33.70;;;;;;5072596;28;20039;-75
2023/07/10 06:56:00;;;;;;;6.55;5.28;;;40.00;33.60;;;;;;5072813;28;20024;-68
2023/07/10 06:58:27;;;;;;;15.43;5.68;;;40.20;33.70;;;;;;5071831;28;20107;-68
2023/07/10 07:00:53;;;;;;;8.18;5.80;;;39.80;33.20;;;;;;5072923;28;20032;-69
2023/07/10 07:03:19;;;;;;;9.63;5.13;;;40.40;32.50;;;;;;5071975;28;20074;-68
2023/07/10 07:05:45;;;;;;;8.23;5.15;;;40.30;32.60;;;;;;5072250;28;20021;-69
2023/07/10 07:08:12;;;;;;;8.82;5.32;;;40.10;32.20;;;;;;5072787;28;20025;-70
2023/07/10 07:10:41;;;;;;;12.73;5.60;;;40.10;32.20;;;;;;5072065;28;20036;-69
2023/07/10 07:13:08;;;;;;;7.18;4.47;;;40.30;32.30;;;;;;5072313;28;20028;-69
2023/07/10 07:15:34;;;;;;;8.40;5.10;;;40.60;32.00;;;;;;5071822;28;20119;-69
2023/07/10 07:17:59;;;;;;;10.57;5.22;;;40.70;32.60;;;;;;5072125;28;20486;-68
2023/07/10 07:20:25;;;;;;;8.48;4.97;;;40.50;32.70;;;;;;5072108;28;20154;-69
2023/07/10 07:22:50;;;;;;;13.52;5.25;;;40.60;32.30;;;;;;5072531;28;20031;-68
2023/07/10 07:25:18;;;;;;;9.50;5.07;;;40.90;32.10;;;;;;5072375;28;20021;-68
2023/07/10 07:27:43;;;;;;;9.73;5.47;;;41.20;32.20;;;;;;5072070;28;20572;-68
2023/07/10 07:30:10;;;;;;;9.85;5.47;;;41.30;31.70;;;;;;5072588;28;20115;-69
2023/07/10 07:32:35;;;;;;;7.85;4.60;;;41.60;31.80;;;;;;5072035;28;20032;-69
2023/07/10 07:35:01;;;;;;;9.50;5.05;;;41.60;31.60;;;;;;5072092;28;20078;-69
2023/07/10 07:37:27;;;;;;;12.63;4.63;;;42.00;31.50;;;;;;5072129;28;20032;-69
2023/07/10 07:39:54;;;;;;;10.15;4.78;;;42.20;30.70;;;;;;5072300;28;20031;-68
2023/07/10 07:42:20;;;;;;;7.78;4.32;;;42.40;30.00;;;;;;5072380;28;20128;-69
2023/07/10 07:44:46;;;;;;;10.27;4.97;;;42.50;29.30;;;;;;5071372;28;20501;-69
2023/07/10 07:47:12;;;;;;;7.18;4.20;;;42.30;29.40;;;;;;5070781;28;20084;-68
2023/07/10 07:49:37;;;;;;;9.68;4.30;;;42.40;28.80;;;;;;5071907;28;20028;-67
2023/07/10 07:52:03;;;;;;;10.65;4.30;;;42.40;29.10;;;;;;5070973;28;20045;-68
2023/07/10 07:54:29;;;;;;;6.22;4.15;;;42.50;28.70;;;;;;5072040;28;20028;-69
2023/07/10 07:56:55;;;;;;;6.38;4.22;;;41.90;28.50;;;;;;5072372;28;20028;-68
2023/07/10 07:59:22;;;;;;;4.60;4.15;;;41.70;28.30;;;;;;5071004;28;20024;-67
2023/07/10 08:01:49;;;;;;;7.07;4.45;;;41.30;28.70;;;;;;5070466;28;20029;-68
2023/07/10 08:04:16;;;;;;;7.20;3.67;;;40.70;28.90;;;;;;5072054;28;20457;-68
2023/07/10 08:06:41;;;;;;;11.93;4.35;;;40.80;29.30;;;;;;5071731;28;20169;-68
2023/07/10 08:09:07;;;;;;;6.65;4.35;;;40.60;29.50;;;;;;5071662;28;20471;-68
2023/07/10 08:11:33;;;;;;;9.13;4.30;;;40.60;29.80;;;;;;5071968;28;20075;-68
2023/07/10 08:13:58;;;;;;;5.57;4.15;;;40.50;29.30;;;;;;5071821;28;20109;-68
2023/07/10 08:16:24;;;;;;;9.57;3.80;;;40.50;29.80;;;;;;5075126;28;20021;-68
2023/07/10 08:18:50;;;;;;;6.10;4.28;;;40.30;29.60;;;;;;5075342;28;20032;-68
2023/07/10 08:21:16;;;;;;;5.95;4.55;;;40.40;29.40;;;;;;5075850;28;20103;-69
2023/07/10 08:23:41;;;;;;;5.80;4.05;;;40.40;29.50;;;;;;5075422;28;20029;-68
2023/07/10 08:26:08;;;;;;;5.00;3.78;;;39.90;28.90;;;;;;5075526;28;20047;-68
2023/07/10 08:28:34;;;;;;;8.27;4.30;;;39.50;29.80;;;;;;5074939;28;20032;-68
2023/07/10 08:31:00;;;;;;;6.30;4.57;;;39.30;29.50;;;;;;5075291;28;20119;-69
2023/07/10 08:33:26;;;;;;;4.57;4.10;;;38.60;30.00;;;;;;5075140;28;20453;-68
2023/07/10 08:35:57;;;;;;;5.35;4.32;;;38.40;30.10;;;;;;5074866;28;20032;-68
2023/07/10 08:38:23;;;;;;;5.13;4.07;;;38.30;30.50;;;;;;5075202;28;20081;-68
2023/07/10 08:40:52;;;;;;;5.90;4.10;;;38.10;31.00;;;;;;5074803;28;20376;-68
2023/07/10 08:43:35;;;;;;;5.88;4.47;;;37.90;31.10;;;;;;5075244;28;20135;-68
2023/07/10 08:46:09;;;;;;;5.72;4.38;;;37.80;31.30;;;;;;5074662;28;20555;-69
2023/07/10 08:48:39;;;;;;;5.93;4.00;;;37.50;31.60;;;;;;5074430;28;20032;-67
2023/07/10 08:51:31;;;;;;;6.90;5.10;;;37.10;32.60;;;;;;5074983;28;20032;-68
2023/07/10 08:54:06;;;;;;;5.68;4.20;;;36.60;32.90;;;;;;5075133;28;20043;-69
2023/07/10 08:56:45;;;;;;;8.60;4.82;;;36.50;33.30;;;;;;5074696;28;20028;-72
2023/07/10 08:59:39;;;;;;;6.40;4.50;;;36.30;33.10;;;;;;5074809;28;20021;-68
2023/07/10 09:02:35;;;;;;;5.95;4.15;;;35.90;32.90;;;;;;5075156;28;20459;-70
2023/07/10 09:05:04;;;;;;;7.32;4.45;;;35.60;33.60;;;;;;5049178;28;20068;-68
2023/07/10 09:07:37;;;;;;;6.55;4.10;;;35.60;34.40;;;;;;5074662;28;20437;-68
2023/07/10 09:10:07;;;;;;;4.75;4.25;;;35.70;33.80;;;;;;5074961;28;20124;-69
2023/07/10 09:12:40;;;;;;;4.77;4.17;;;35.80;34.20;;;;;;5074074;28;20078;-75
2023/07/10 09:15:07;;;;;;;6.30;4.32;;;35.60;32.90;;;;;;5074954;28;20264;-69
2023/07/10 09:18:01;;;;;;;8.60;4.25;;;35.20;33.20;;;;;;5073001;28;20024;-72
2023/07/10 09:20:27;;;;;;;5.35;4.05;;;35.20;33.20;;;;;;5074741;28;20101;-68
2023/07/10 09:23:11;;;;;;;7.72;4.50;;;34.90;33.60;;;;;;5074307;28;20115;-68
2023/07/10 09:25:37;;;;;;;7.68;4.18;;;34.90;34.00;;;;;;5073659;28;20050;-68
2023/07/10 09:28:02;;;;;;;6.50;4.43;;;34.90;34.10;;;;;;5071480;28;20047;-68
2023/07/10 09:31:02;;;;;;;9.45;4.63;;;34.90;34.40;;;;;;5076177;28;20039;-68
2023/07/10 09:33:51;;;;;;;6.60;4.30;;;35.00;33.80;;;;;;5074638;28;20465;-68
2023/07/10 09:36:20;;;;;;;7.93;4.00;;;35.20;33.50;;;;;;5074469;28;20064;-68
2023/07/10 09:38:49;;;;;;;7.63;4.20;;;34.90;32.90;;;;;;5073245;28;20111;-68
2023/07/10 09:41:22;;;;;;;6.03;3.97;;;34.90;32.80;;;;;;5074273;28;20029;-68
2023/07/10 09:44:02;;;;;;;5.47;3.97;;;34.70;32.90;;;;;;5073868;28;20021;-68
2023/07/10 09:46:31;;;;;;;8.55;4.45;;;34.60;33.40;;;;;;5073787;28;20053;-68
2023/07/10 09:49:08;;;;;;;7.32;4.60;;;34.80;33.80;;;;;;5073660;28;20036;-68
2023/07/10 09:51:37;;;;;;;7.97;4.82;;;34.80;34.50;;;;;;5073661;28;20045;-68
2023/07/10 09:54:07;;;;;;;14.32;4.30;;;34.90;34.50;;;;;;5073909;28;20021;-68
2023/07/10 09:56:38;;;;;;;7.18;4.72;;;34.80;33.10;;;;;;5073863;28;20029;-68
2023/07/10 09:59:21;;;;;;;6.20;4.75;;;34.80;33.70;;;;;;5073979;28;20024;-68
2023/07/10 10:01:48;;;;;;;5.55;4.15;;;34.60;34.00;;;;;;5072040;28;20029;-69
2023/07/10 10:04:23;;;;;;;6.28;4.30;;;34.60;33.90;;;;;;5073772;28;20028;-67
2023/07/10 10:06:56;;;;;;;4.97;4.10;;;34.60;33.70;;;;;;5073509;28;20112;-69
2023/07/10 10:09:25;;;;;;;5.47;4.28;;;34.60;33.60;;;;;;5073419;28;20032;-68
2023/07/10 10:11:55;;;;;;;6.75;4.00;;;34.60;33.90;;;;;;5072707;28;20060;-69
2023/07/10 10:14:32;;;;;;;6.55;4.30;;;34.60;33.60;;;;;;5073469;28;20477;-69
2023/07/10 10:17:03;;;;;;;6.60;4.40;;;34.60;33.50;;;;;;5071628;28;20089;-68
2023/07/10 10:19:39;;;;;;;5.32;4.38;;;34.70;33.70;;;;;;5073342;28;20167;-68
2023/07/10 10:22:11;;;;;;;8.00;4.03;;;34.80;33.90;;;;;;5073387;28;20032;-69
2023/07/10 10:24:37;;;;;;;7.00;3.80;;;34.90;34.10;;;;;;5072925;28;20469;-68
2023/07/10 10:27:33;;;;;;;7.22;4.38;;;34.90;33.80;;;;;;5072107;28;20028;-68
2023/07/10 10:30:14;;;;;;;5.53;4.13;;;35.00;33.90;;;;;;5072542;28;20388;-69
2023/07/10 10:32:47;;;;;;;10.13;4.53;;;35.10;33.40;;;;;;5072780;28;20024;-68
2023/07/10 10:35:28;;;;;;;4.82;4.32;;;35.20;33.60;;;;;;5072933;28;20043;-69
2023/07/10 10:38:26;;;;;;;8.10;4.65;;;35.30;34.10;;;;;;5072577;28;20068;-68
2023/07/10 10:41:09;;;;;;;6.13;4.63;;;35.30;33.50;;;;;;5058800;28;20128;-69
2023/07/10 10:43:51;;;;;;;5.55;4.45;;;35.20;33.10;;;;;;5072958;28;20047;-68
2023/07/10 10:46:40;;;;;;;5.95;3.92;;;35.10;33.00;;;;;;5073185;28;20045;-68
2023/07/10 10:49:18;;;;;;;6.13;4.27;;;35.10;33.70;;;;;;5072781;28;20025;-69
2023/07/10 10:52:00;;;;;;;5.15;4.18;;;35.10;34.10;;;;;;5071260;28;20094;-68
2023/07/10 10:54:38;;;;;;;8.57;4.38;;;35.20;34.70;;;;;;5072926;28;20037;-68
2023/07/10 10:57:12;;;;;;;10.80;4.20;;;35.30;32.80;;;;;;5072854;28;20032;-68
2023/07/10 10:59:44;;;;;;;10.30;4.18;;;35.20;32.40;;;;;;5072858;28;20060;-68
2023/07/10 11:02:15;;;;;;;5.82;4.22;;;35.10;31.80;;;;;;5072548;28;20107;-68
2023/07/10 11:04:45;;;;;;;7.32;4.65;;;35.10;32.90;;;;;;5072084;28;20052;-74
2023/07/10 11:07:13;;;;;;;5.88;3.92;;;35.00;33.10;;;;;;5073174;28;20111;-69
2023/07/10 11:10:01;;;;;;;6.32;4.30;;;35.10;33.50;;;;;;5072315;28;20469;-68
2023/07/10 11:12:31;;;;;;;5.93;4.15;;;35.10;34.30;;;;;;5072568;28;20028;-68
2023/07/10 11:15:11;;;;;;;7.30;3.92;;;35.10;32.90;;;;;;5072182;28;20021;-68
2023/07/10 11:17:37;;;;;;;5.35;3.70;;;35.10;32.10;;;;;;5071592;28;20024;-69
2023/07/10 11:20:04;;;;;;;9.40;4.43;;;35.10;31.90;;;;;;5071937;28;20443;-68
2023/07/10 11:22:34;;;;;;;7.82;4.20;;;35.10;32.90;;;;;;5072667;28;20029;-69
2023/07/10 11:25:01;;;;;;;7.57;4.60;;;35.00;32.60;;;;;;5072068;28;20086;-69
2023/07/10 11:27:27;;;;;;;6.35;4.07;;;35.10;32.30;;;;;;5072554;28;20067;-69
2023/07/10 11:30:04;;;;;;;10.40;4.40;;;35.00;31.70;;;;;;5071596;28;20063;-69
2023/07/10 11:32:35;;;;;;;7.55;4.13;;;35.10;31.60;;;;;;5072346;28;20379;-68
2023/07/10 11:35:17;;;;;;;5.35;4.20;;;35.00;31.90;;;;;;5071434;28;20447;-69
2023/07/10 11:37:49;;;;;;;7.07;4.70;;;35.00;31.20;;;;;;5072112;28;20021;-68
2023/07/10 11:40:23;;;;;;;7.38;4.00;;;35.00;29.90;;;;;;5072305;28;20052;-68
2023/07/10 11:42:50;;;;;;;6.00;4.68;;;35.00;30.10;;;;;;5071567;28;20086;-68
2023/07/10 11:45:16;;;;;;;5.97;4.18;;;35.00;30.30;;;;;;5072505;28;20390;-68
2023/07/10 11:47:46;;;;;;;7.10;4.13;;;35.00;30.10;;;;;;5071790;28;20048;-68
2023/07/10 11:50:27;;;;;;;9.15;4.43;;;35.10;31.20;;;;;;5073565;28;20020;-67
2023/07/10 11:53:13;;;;;;;4.72;4.18;;;35.20;31.60;;;;;;5076146;28;20037;-67
2023/07/10 11:55:53;;;;;;;5.93;4.47;;;35.20;30.10;;;;;;5068782;28;20102;-67
2023/07/10 11:58:30;;;;;;;8.15;4.07;;;35.10;30.90;;;;;;5076183;28;20469;-69
2023/07/10 12:01:15;;;;;;;7.60;4.15;;;35.20;31.10;;;;;;5075688;28;20055;-68
2023/07/10 12:03:42;;;;;;;7.55;3.97;;;35.20;30.70;;;;;;5076143;28;20043;-68
2023/07/10 12:06:14;;;;;;;4.88;4.20;;;35.30;29.80;;;;;;5075510;28;20024;-67
2023/07/10 12:08:40;;;;;;;4.95;3.95;;;35.30;29.70;;;;;;5075642;28;20039;-68
2023/07/10 12:11:25;;;;;;;7.32;4.18;;;35.30;31.00;;;;;;5075096;28;20118;-69
2023/07/10 12:13:51;;;;;;;6.82;4.32;;;35.30;31.10;;;;;;5075501;28;20120;-69
2023/07/10 12:16:18;;;;;;;6.55;4.53;;;35.30;30.80;;;;;;5075822;28;20059;-69
2023/07/10 12:18:44;;;;;;;6.97;4.35;;;35.20;30.80;;;;;;5074588;28;20033;-68
2023/07/10 12:21:19;;;;;;;7.47;4.47;;;35.20;30.70;;;;;;5074987;28;20093;-69
2023/07/10 12:23:57;;;;;;;7.53;4.13;;;35.20;31.70;;;;;;5075692;28;20024;-69
2023/07/10 12:26:22;;;;;;;5.50;3.90;;;35.10;30.60;;;;;;5075431;28;20069;-69
2023/07/10 12:28:54;;;;;;;5.15;3.95;;;35.10;30.00;;;;;;5075245;28;20020;-70
2023/07/10 12:31:21;;;;;;;6.45;4.40;;;35.10;30.50;;;;;;5075513;28;20032;-68
2023/07/10 12:33:50;;;;;;;4.88;4.10;;;35.10;31.30;;;;;;5075449;28;20477;-68
2023/07/10 12:36:39;;;;;;;5.47;3.90;;;35.10;31.10;;;;;;5075500;28;20016;-69
2023/07/10 12:39:08;;;;;;;5.57;4.45;;;35.10;30.80;;;;;;5074902;28;20024;-69
2023/07/10 12:41:40;;;;;;;6.33;4.40;;;35.10;31.00;;;;;;5075265;28;20032;-68
2023/07/10 12:44:06;;;;;;;5.93;4.35;;;35.10;30.40;;;;;;5074758;28;20245;-69
2023/07/10 12:46:32;;;;;;;7.75;4.15;;;35.00;30.20;;;;;;5075092;28;20139;-67
2023/07/10 12:49:06;;;;;;;8.00;5.13;;;35.00;30.40;;;;;;5074599;28;20020;-68
2023/07/10 12:51:36;;;;;;;10.70;4.65;;;35.00;30.70;;;;;;5073725;28;20042;-68
2023/07/10 12:54:10;;;;;;;5.55;4.22;;;34.90;31.50;;;;;;5074902;28;20111;-68
2023/07/10 12:56:39;;;;;;;6.57;4.50;;;34.90;30.80;;;;;;5075153;28;20082;-67